Hana — 2BCV4 — position and weather

sailwx.info

Track history (hours):
 
Tides and Currents Weather Stations Pressure Air Temp Water Temp Dewpoint Dewpoint Depression Visibility Wind Speed Wind Dir Waves Ship Positions

Hana

Last reported at 2014-Sep-20 19:33 UTC. Time now 2014-Sep-20 22:02 UTC.
Position N 43°50' E 008°26'.

Length 43 m; draft 2.9 m.

Type: Pleasure craft. MMSI: 235065022.

Date/timePositionNaut miles runAvg speedWind from/ knotsBaromVisibWave heightAir tempDewpointWater temp
2014-Sep-20 19:33N 43°50' E 008°26'1010.4
2014-Sep-20 18:34N 43°52' E 008°40'1010.3
2014-Sep-20 17:33N 43°54' E 008°54'1010.3
2014-Sep-20 16:34N 43°56' E 009°08'1110.5
2014-Sep-20 15:34N 43°59' E 009°22'1010.4
2014-Sep-20 14:33N 44°01' E 009°37'1010.0
2014-Sep-20 13:33N 44°03' E 009°50'0 0.1
2014-Sep-20 12:33N 44°03' E 009°50'0 0.0
2014-Sep-20 11:33N 44°03' E 009°50'0 0.0
2014-Sep-20 10:33N 44°03' E 009°50'0 0.0
2014-Sep-20 09:33N 44°03' E 009°50'0 0.0
2014-Sep-20 08:33N 44°03' E 009°50'0 0.0
2014-Sep-20 07:33N 44°03' E 009°50'0 0.0
2014-Sep-20 06:33N 44°03' E 009°50'0 0.0
2014-Sep-20 05:33N 44°03' E 009°50'0 0.0
2014-Sep-20 04:33N 44°03' E 009°50'0 0.0
2014-Sep-20 03:33N 44°03' E 009°50'0 0.0
2014-Sep-20 02:33N 44°03' E 009°50'0 0.0
2014-Sep-20 01:33N 44°03' E 009°50'0 0.0
2014-Sep-20 00:33N 44°03' E 009°50'0 0.0
2014-Sep-19 23:33N 44°03' E 009°50'0 0.0
2014-Sep-19 22:33N 44°03' E 009°50'0 0.0
2014-Sep-19 21:30N 44°03' E 009°50'0 0.0
2014-Sep-19 20:33N 44°03' E 009°50'0 0.0
2014-Sep-19 19:33N 44°03' E 009°50'0 0.0
2014-Sep-19 18:33N 44°03' E 009°50'0 0.0
2014-Sep-19 17:30N 44°03' E 009°50'0 0.0
2014-Sep-19 16:33N 44°03' E 009°50'0 0.0
2014-Sep-19 15:33N 44°03' E 009°50'0 0.0
2014-Sep-19 14:33N 44°03' E 009°50'0 0.0
2014-Sep-19 13:33N 44°03' E 009°50'0 0.0
2014-Sep-19 12:33N 44°03' E 009°50'2 2.1
2014-Sep-19 11:33N 44°02' E 009°52'7 6.8
2014-Sep-19 10:33N 44°03' E 009°43'8 7.7
2014-Sep-19 09:33N 44°08' E 009°35'8 7.9
2014-Sep-19 08:33N 44°13' E 009°26'8 7.9
2014-Sep-19 07:33N 44°17' E 009°17'3 0.1
2014-Sep-18 08:03N 44°18' E 009°13'0 0.6
2014-Sep-18 07:31N 44°18' E 009°13'8 8.5
2014-Sep-18 06:32N 44°14' E 009°03'10 9.6
2014-Sep-18 05:32N 44°09' E 008°52'8 8.6
2014-Sep-18 04:33N 44°05' E 008°41'9 8.6
2014-Sep-18 03:33N 44°01' E 008°31'48 9.6
2014-Sep-17 22:33N 43°44' E 007°28'  
2014-Sep-15 14:33N 43°41' E 007°22'2 1.8
2014-Sep-15 13:24N 43°42' E 007°19'0 0.0
2014-Sep-15 12:24N 43°42' E 007°19'0 0.0
2014-Sep-15 11:30N 43°42' E 007°19'0 0.0
2014-Sep-15 10:24N 43°42' E 007°19'1 1.0
2014-Sep-15 09:33N 43°41' E 007°19'  
Track history (hours):
 
Tides and Currents Weather Stations Pressure Air Temp Water Temp Dewpoint Dewpoint Depression Visibility Wind Speed Wind Dir Waves Ship Positions

Hana

Last reported at 2014-Sep-20 19:33 UTC. Time now 2014-Sep-20 22:02 UTC.
Position N 43°50' E 008°26'.

Length 43 m; draft 2.9 m.

Type: Pleasure craft. MMSI: 235065022.

Date/timePositionNaut miles runAvg speedWind from/ knotsBaromVisibWave heightAir tempDewpointWater temp
2014-Sep-20 19:33N 43°50' E 008°26'1010.4
2014-Sep-20 18:34N 43°52' E 008°40'1010.3
2014-Sep-20 17:33N 43°54' E 008°54'1010.3
2014-Sep-20 16:34N 43°56' E 009°08'1110.5
2014-Sep-20 15:34N 43°59' E 009°22'1010.4
2014-Sep-20 14:33N 44°01' E 009°37'1010.0
2014-Sep-20 13:33N 44°03' E 009°50'0 0.1
2014-Sep-20 12:33N 44°03' E 009°50'0 0.0
2014-Sep-20 11:33N 44°03' E 009°50'0 0.0
2014-Sep-20 10:33N 44°03' E 009°50'0 0.0
2014-Sep-20 09:33N 44°03' E 009°50'0 0.0
2014-Sep-20 08:33N 44°03' E 009°50'0 0.0
2014-Sep-20 07:33N 44°03' E 009°50'0 0.0
2014-Sep-20 06:33N 44°03' E 009°50'0 0.0
2014-Sep-20 05:33N 44°03' E 009°50'0 0.0
2014-Sep-20 04:33N 44°03' E 009°50'0 0.0
2014-Sep-20 03:33N 44°03' E 009°50'0 0.0
2014-Sep-20 02:33N 44°03' E 009°50'0 0.0
2014-Sep-20 01:33N 44°03' E 009°50'0 0.0
2014-Sep-20 00:33N 44°03' E 009°50'0 0.0
2014-Sep-19 23:33N 44°03' E 009°50'0 0.0
2014-Sep-19 22:33N 44°03' E 009°50'0 0.0
2014-Sep-19 21:30N 44°03' E 009°50'0 0.0
2014-Sep-19 20:33N 44°03' E 009°50'0 0.0
2014-Sep-19 19:33N 44°03' E 009°50'0 0.0
2014-Sep-19 18:33N 44°03' E 009°50'0 0.0
2014-Sep-19 17:30N 44°03' E 009°50'0 0.0
2014-Sep-19 16:33N 44°03' E 009°50'0 0.0
2014-Sep-19 15:33N 44°03' E 009°50'0 0.0
2014-Sep-19 14:33N 44°03' E 009°50'0 0.0
2014-Sep-19 13:33N 44°03' E 009°50'0 0.0
2014-Sep-19 12:33N 44°03' E 009°50'2 2.1
2014-Sep-19 11:33N 44°02' E 009°52'7 6.8
2014-Sep-19 10:33N 44°03' E 009°43'8 7.7
2014-Sep-19 09:33N 44°08' E 009°35'8 7.9
2014-Sep-19 08:33N 44°13' E 009°26'8 7.9
2014-Sep-19 07:33N 44°17' E 009°17'3 0.1
2014-Sep-18 08:03N 44°18' E 009°13'0 0.6
2014-Sep-18 07:31N 44°18' E 009°13'8 8.5
2014-Sep-18 06:32N 44°14' E 009°03'10 9.6
2014-Sep-18 05:32N 44°09' E 008°52'8 8.6
2014-Sep-18 04:33N 44°05' E 008°41'9 8.6
2014-Sep-18 03:33N 44°01' E 008°31'48 9.6
2014-Sep-17 22:33N 43°44' E 007°28'  
2014-Sep-15 14:33N 43°41' E 007°22'2 1.8
2014-Sep-15 13:24N 43°42' E 007°19'0 0.0
2014-Sep-15 12:24N 43°42' E 007°19'0 0.0
2014-Sep-15 11:30N 43°42' E 007°19'0 0.0
2014-Sep-15 10:24N 43°42' E 007°19'1 1.0
2014-Sep-15 09:33N 43°41' E 007°19'  

Dump ship's entire track history